Time;durP1;ratioP1;P1;durP2;ratioP2;P2;SDS_P1;SDS_P2;PMS_P1;PMS_P2;Temp;Humidity;BMP_temperature;BMP_pressure;BME280_temperature;BME280_humidity;BME280_pressure;Samples;Min_cycle;Max_cycle;Signal;HPM_P1;HPM_P2
2022/04/13 00:00:30;;;;;;;0.30;0.30;;;15.20;99.90;;;-141.50;100.00;62695.63;4971422;28;21211;-72
2022/04/13 00:02:58;;;;;;;0.30;0.30;;;15.20;99.90;;;-141.50;100.00;62695.63;4956091;28;20658;-72
2022/04/13 00:05:25;;;;;;;0.30;0.30;;;15.20;99.90;;;-141.50;100.00;62695.63;4971502;28;21265;-73
2022/04/13 00:07:54;;;;;;;0.30;0.30;;;15.20;99.90;;;-141.50;100.00;62695.63;4988442;28;20721;-72
2022/04/13 00:10:21;;;;;;;5.03;2.53;;;15.10;99.90;;;-141.50;100.00;62695.63;4980392;28;21213;-72
2022/04/13 00:12:48;;;;;;;0.30;0.30;;;15.10;99.90;;;-141.50;100.00;62695.63;4990904;28;20621;-72
2022/04/13 00:15:15;;;;;;;0.30;0.30;;;15.10;99.90;;;-141.50;100.00;62695.63;4941789;28;20674;-72
2022/04/13 00:17:42;;;;;;;0.30;0.30;;;15.00;99.90;;;-141.50;100.00;62695.63;4991901;28;20629;-71
2022/04/13 00:20:10;;;;;;;0.30;0.30;;;15.00;99.90;;;-141.50;100.00;62695.63;4957451;28;20615;-72
2022/04/13 00:22:37;;;;;;;0.30;0.30;;;14.90;99.90;;;-141.50;100.00;62695.63;4993410;28;20721;-71
2022/04/13 00:25:05;;;;;;;0.30;0.30;;;14.90;99.90;;;-141.50;100.00;62695.63;5000519;28;20665;-72
2022/04/13 00:27:32;;;;;;;0.93;0.93;;;14.90;99.90;;;-141.50;100.00;62695.63;4977066;28;20725;-71
2022/04/13 00:29:59;;;;;;;0.30;0.30;;;14.90;99.90;;;-141.50;100.00;62695.63;4993573;28;20731;-71
2022/04/13 00:32:25;;;;;;;0.70;0.60;;;14.90;99.90;;;-141.50;100.00;62695.63;5005392;28;20620;-72
2022/04/13 00:34:54;;;;;;;0.30;0.30;;;14.90;99.90;;;-141.50;100.00;62695.63;4997765;28;20654;-71
2022/04/13 00:37:21;;;;;;;0.30;0.30;;;14.90;99.90;;;-141.50;100.00;62695.63;4975638;28;20637;-72
2022/04/13 00:39:48;;;;;;;1.63;1.53;;;14.80;99.90;;;-141.50;100.00;62695.63;4986835;28;20626;-71
2022/04/13 00:42:16;;;;;;;0.30;0.30;;;14.70;99.90;;;-141.50;100.00;62695.63;4995223;28;20700;-71
2022/04/13 00:44:43;;;;;;;0.30;0.30;;;14.70;99.90;;;-141.50;100.00;62695.63;4972404;28;20697;-71
2022/04/13 00:47:11;;;;;;;0.30;0.30;;;14.60;99.90;;;-141.50;100.00;62695.63;4973677;28;21198;-72
2022/04/13 00:49:38;;;;;;;0.30;0.30;;;14.60;99.90;;;-141.50;100.00;62695.63;4991420;28;20622;-71
2022/04/13 00:52:06;;;;;;;0.30;0.30;;;14.60;99.90;;;-141.50;100.00;62695.63;4994543;28;20633;-71
2022/04/13 00:54:34;;;;;;;0.30;0.30;;;14.60;99.90;;;-141.50;100.00;62695.63;4968030;23;20907;-71
2022/04/13 00:57:11;;;;;;;0.63;0.60;;;14.60;99.90;;;-141.50;100.00;62695.63;4974979;28;20669;-70
2022/04/13 00:59:39;;;;;;;0.30;0.30;;;14.50;99.90;;;-141.50;100.00;62695.63;4993389;28;20630;-71
2022/04/13 01:02:07;;;;;;;0.30;0.30;;;14.50;99.90;;;-141.50;100.00;62695.63;5004974;28;20632;-71
2022/04/13 01:04:36;;;;;;;0.30;0.30;;;14.40;99.90;;;-141.50;100.00;62695.63;4999858;28;20745;-72
2022/04/13 01:07:08;;;;;;;1.47;1.07;;;14.40;99.90;;;-141.50;100.00;62695.63;4979634;28;20635;-71
2022/04/13 01:09:36;;;;;;;0.30;0.30;;;14.40;99.90;;;-141.50;100.00;62695.63;4993700;28;20637;-70
2022/04/13 01:12:04;;;;;;;0.30;0.30;;;14.40;99.90;;;-141.50;100.00;62695.63;4988555;28;20769;-72
2022/04/13 01:14:31;;;;;;;0.30;0.30;;;14.30;99.90;;;-141.50;100.00;62695.63;4975596;28;20650;-71
2022/04/13 01:17:00;;;;;;;0.30;0.30;;;14.30;99.90;;;-141.50;100.00;62695.63;4972986;28;20674;-71
2022/04/13 01:19:27;;;;;;;0.30;0.27;;;14.30;99.90;;;-141.50;100.00;62695.63;4975128;28;20627;-70
2022/04/13 01:22:03;;;;;;;0.30;0.30;;;14.40;99.90;;;-141.50;100.00;62695.63;4987829;28;20633;-71
2022/04/13 01:24:32;;;;;;;0.30;0.30;;;14.40;99.90;;;-141.50;100.00;62695.63;4980771;28;20646;-71
2022/04/13 01:26:59;;;;;;;0.30;0.30;;;14.40;99.90;;;-141.50;100.00;62695.63;4988225;28;20646;-68
2022/04/13 01:29:26;;;;;;;0.30;0.30;;;14.30;99.90;;;-141.50;100.00;62695.63;5004168;28;20629;-71
2022/04/13 01:31:54;;;;;;;0.30;0.30;;;14.30;99.90;;;-141.50;100.00;62695.63;5006575;28;20638;-71
2022/04/13 01:34:22;;;;;;;0.30;0.30;;;14.30;99.90;;;-141.50;100.00;62695.63;4992143;28;20646;-72
2022/04/13 01:36:49;;;;;;;0.30;0.30;;;14.30;99.90;;;-141.50;100.00;62695.63;4973540;28;20675;-72
2022/04/13 01:39:16;;;;;;;0.30;0.30;;;14.20;99.90;;;-141.50;100.00;62695.63;4992701;28;20610;-71
2022/04/13 01:41:43;;;;;;;0.30;0.30;;;14.20;99.90;;;-141.50;100.00;62695.63;4981152;28;21314;-71
2022/04/13 01:44:10;;;;;;;0.30;0.30;;;14.20;99.90;;;-141.50;100.00;62695.63;4990023;28;20721;-71
2022/04/13 01:46:37;;;;;;;0.30;0.30;;;14.10;99.90;;;-141.50;100.00;62695.63;4973434;28;20639;-71
2022/04/13 01:49:04;;;;;;;0.30;0.30;;;14.10;99.90;;;-141.50;100.00;62695.63;5004369;28;20670;-71
2022/04/13 01:51:30;;;;;;;0.30;0.30;;;14.00;99.90;;;-141.50;100.00;62695.63;4990358;28;20642;-70
2022/04/13 01:53:57;;;;;;;0.60;0.60;;;14.00;99.90;;;-141.50;100.00;62695.63;4987634;28;20724;-69
2022/04/13 01:56:24;;;;;;;0.30;0.30;;;14.00;99.90;;;-141.50;100.00;62695.63;4974890;28;20667;-71
2022/04/13 01:58:51;;;;;;;0.30;0.30;;;14.00;99.90;;;-141.50;100.00;62695.63;4972728;28;21082;-71
2022/04/13 02:01:19;;;;;;;0.30;0.30;;;14.00;99.90;;;-141.50;100.00;62695.63;4990552;28;20713;-71
2022/04/13 02:03:46;;;;;;;0.30;0.30;;;14.00;99.90;;;-141.50;100.00;62695.63;4978055;28;20627;-72
2022/04/13 02:06:14;;;;;;;0.30;0.30;;;14.00;99.90;;;-141.50;100.00;62695.63;4980433;28;20658;-72
2022/04/13 02:08:41;;;;;;;0.30;0.30;;;13.90;99.90;;;-141.50;100.00;62695.63;5002419;28;21319;-71
2022/04/13 02:11:08;;;;;;;0.30;0.30;;;13.90;99.90;;;-141.50;100.00;62695.63;4972945;28;20643;-71
2022/04/13 02:13:35;;;;;;;0.30;0.30;;;14.00;99.90;;;-141.50;100.00;62695.63;4979244;28;20681;-71
2022/04/13 02:16:03;;;;;;;0.70;0.70;;;14.00;99.90;;;-141.50;100.00;62695.63;4971046;28;21346;-71
2022/04/13 02:18:30;;;;;;;0.30;0.30;;;14.00;99.90;;;-141.50;100.00;62695.63;4971585;28;20671;-70
2022/04/13 02:20:58;;;;;;;0.30;0.30;;;14.00;99.90;;;-141.50;100.00;62695.63;5012467;28;20613;-71
2022/04/13 02:23:24;;;;;;;0.83;0.77;;;14.00;99.90;;;-141.50;100.00;62695.63;4997898;28;21000;-71
2022/04/13 02:25:51;;;;;;;0.30;0.30;;;14.00;99.90;;;-141.50;100.00;62695.63;4986553;28;20662;-71
2022/04/13 02:28:18;;;;;;;0.30;0.30;;;14.00;99.90;;;-141.50;100.00;62695.63;4972685;28;21096;-72
2022/04/13 02:30:45;;;;;;;0.30;0.30;;;14.00;99.90;;;-141.50;100.00;62695.63;4989722;28;20725;-71
2022/04/13 02:33:13;;;;;;;0.30;0.30;;;13.90;99.90;;;-141.50;100.00;62695.63;4978966;28;20639;-72
2022/04/13 02:35:40;;;;;;;1.47;1.33;;;13.90;99.90;;;-141.50;100.00;62695.63;5011041;23;20700;-71
2022/04/13 02:38:10;;;;;;;0.30;0.30;;;13.80;99.90;;;-141.50;100.00;62695.63;5029632;28;21288;-71
2022/04/13 02:40:37;;;;;;;0.30;0.30;;;13.80;99.90;;;-141.50;100.00;62695.63;5013439;28;21232;-71
2022/04/13 02:43:04;;;;;;;1.13;1.13;;;13.80;99.90;;;-141.50;100.00;62695.63;5029879;28;20617;-71
2022/04/13 02:45:31;;;;;;;0.30;0.30;;;13.70;99.90;;;-141.50;100.00;62695.63;5028869;28;20709;-72
2022/04/13 02:47:58;;;;;;;0.30;0.30;;;13.70;99.90;;;-141.50;100.00;62695.63;5009794;28;20622;-72
2022/04/13 02:50:25;;;;;;;0.40;0.40;;;13.80;99.90;;;-141.50;100.00;62695.63;5011614;28;20633;-71
2022/04/13 02:52:54;;;;;;;0.30;0.30;;;13.70;99.90;;;-141.50;100.00;62695.63;5004105;28;20639;-71
2022/04/13 02:55:23;;;;;;;0.30;0.30;;;13.70;99.90;;;-141.50;100.00;62695.63;4978098;28;20664;-71
2022/04/13 02:57:51;;;;;;;0.30;0.30;;;13.70;99.90;;;-141.50;100.00;62695.63;4992976;28;20684;-71
2022/04/13 03:00:18;;;;;;;0.30;0.30;;;13.70;99.90;;;-141.50;100.00;62695.63;5010753;28;21114;-71
2022/04/13 03:02:45;;;;;;;0.30;0.30;;;13.70;99.90;;;-141.50;100.00;62695.63;5023305;28;20716;-72
2022/04/13 03:05:12;;;;;;;0.30;0.23;;;13.80;99.90;;;-141.50;100.00;62695.63;5010285;28;21209;-72
2022/04/13 03:07:42;;;;;;;0.30;0.30;;;13.80;99.90;;;-141.50;100.00;62695.63;5013938;28;20644;-71
2022/04/13 03:10:09;;;;;;;0.60;0.60;;;13.80;99.90;;;-141.50;100.00;62695.63;5008783;28;20647;-71
2022/04/13 03:12:36;;;;;;;0.40;0.40;;;13.70;99.90;;;-141.50;100.00;62695.63;4993487;28;20639;-72
2022/04/13 03:15:10;;;;;;;0.30;0.30;;;13.60;99.90;;;-141.50;100.00;62695.63;4994937;28;20656;-71
2022/04/13 03:17:37;;;;;;;0.30;0.30;;;13.50;99.90;;;-141.50;100.00;62695.63;5002156;28;21292;-71
2022/04/13 03:20:05;;;;;;;0.30;0.30;;;13.50;99.90;;;-141.50;100.00;62695.63;4977045;28;20614;-68
2022/04/13 03:22:32;;;;;;;0.30;0.30;;;13.50;99.90;;;-141.50;100.00;62695.63;5011714;28;21193;-72
2022/04/13 03:25:00;;;;;;;0.30;0.30;;;13.50;99.90;;;-141.50;100.00;62695.63;5029103;28;20683;-71
2022/04/13 03:27:27;;;;;;;0.30;0.20;;;13.40;99.90;;;-141.50;100.00;62695.63;4998229;28;21048;-71
2022/04/13 03:29:54;;;;;;;0.87;0.87;;;13.40;99.90;;;-141.50;100.00;62695.63;5009368;28;20743;-72
2022/04/13 03:32:21;;;;;;;0.30;0.30;;;13.40;99.90;;;-141.50;100.00;62695.63;5011288;28;20731;-71
2022/04/13 03:34:48;;;;;;;0.30;0.30;;;13.30;99.90;;;-141.50;100.00;62695.63;5014443;28;20756;-71
2022/04/13 03:37:15;;;;;;;0.30;0.30;;;13.20;99.90;;;-141.50;100.00;62695.63;5009896;28;20673;-71
2022/04/13 03:39:42;;;;;;;0.30;0.30;;;13.10;99.90;;;-141.50;100.00;62695.63;4998865;28;20716;-72
2022/04/13 03:42:09;;;;;;;0.30;0.30;;;13.10;99.90;;;-141.50;100.00;62695.63;5009996;28;20625;-69
2022/04/13 03:44:35;;;;;;;0.30;0.30;;;13.10;99.90;;;-141.50;100.00;62695.63;5020802;28;20656;-72
2022/04/13 03:47:03;;;;;;;0.30;0.30;;;13.10;99.90;;;-141.50;100.00;62695.63;5027067;28;20702;-71
2022/04/13 03:49:30;;;;;;;0.30;0.30;;;13.10;99.90;;;-141.50;100.00;62695.63;5008587;28;20641;-71
2022/04/13 03:51:57;;;;;;;0.30;0.30;;;13.00;99.90;;;-141.50;100.00;62695.63;5012983;28;20631;-71
2022/04/13 03:54:24;;;;;;;0.30;0.30;;;12.90;99.90;;;-141.50;100.00;62695.63;5003243;28;20670;-71
2022/04/13 03:56:53;;;;;;;0.30;0.30;;;12.90;99.90;;;-141.50;100.00;62695.63;5004389;28;20786;-71
2022/04/13 03:59:22;;;;;;;0.30;0.30;;;12.90;99.90;;;-141.50;100.00;62695.63;5021542;28;20632;-72
2022/04/13 04:01:49;;;;;;;0.60;0.60;;;12.90;99.90;;;-141.50;100.00;62695.63;4992132;28;20637;-71
2022/04/13 04:04:16;;;;;;;0.30;0.30;;;12.90;99.90;;;-141.50;100.00;62695.63;5000684;28;21298;-71
2022/04/13 04:06:43;;;;;;;0.30;0.27;;;12.90;99.90;;;-141.50;100.00;62695.63;5014117;28;20632;-72
2022/04/13 04:09:10;;;;;;;0.30;0.30;;;12.90;99.90;;;-141.50;100.00;62695.63;4993331;28;20664;-71
2022/04/13 04:11:37;;;;;;;0.30;0.30;;;12.90;99.90;;;-141.50;100.00;62695.63;4995934;28;20629;-72
2022/04/13 04:14:03;;;;;;;0.30;0.23;;;12.90;99.90;;;-141.50;100.00;62695.63;5027442;28;21200;-71
2022/04/13 04:16:30;;;;;;;2.50;1.90;;;12.90;99.90;;;-141.50;100.00;62695.63;5021914;28;20704;-71
2022/04/13 04:18:57;;;;;;;0.80;0.80;;;12.90;99.90;;;-141.50;100.00;62695.63;4992250;28;20720;-73
2022/04/13 04:21:24;;;;;;;0.30;0.30;;;12.90;99.90;;;-141.50;100.00;62695.63;5008478;28;21256;-72
2022/04/13 04:23:51;;;;;;;0.30;0.30;;;12.90;99.90;;;-141.50;100.00;62695.63;5003844;28;20628;-71
2022/04/13 04:26:18;;;;;;;0.30;0.30;;;12.90;99.90;;;-141.50;100.00;62695.63;5015782;28;20653;-71
2022/04/13 04:28:45;;;;;;;0.30;0.30;;;12.90;99.90;;;-141.50;100.00;62695.63;4976986;28;20643;-71
2022/04/13 04:31:12;;;;;;;0.30;0.30;;;12.90;99.90;;;-141.50;100.00;62695.63;4998139;28;21111;-72
2022/04/13 04:33:39;;;;;;;0.30;0.30;;;12.90;99.90;;;-141.50;100.00;62695.63;5015992;28;21283;-71
2022/04/13 04:36:06;;;;;;;0.30;0.30;;;12.90;99.90;;;-141.50;100.00;62695.63;5006053;28;20664;-71
2022/04/13 04:38:33;;;;;;;0.30;0.30;;;12.80;99.90;;;-141.50;100.00;62695.63;5029302;28;20727;-72
2022/04/13 04:41:00;;;;;;;0.30;0.20;;;12.80;99.90;;;-141.50;100.00;62695.63;5003506;28;20729;-71
2022/04/13 04:43:27;;;;;;;0.30;0.30;;;12.70;99.90;;;-141.50;100.00;62695.63;5003719;28;20661;-72
2022/04/13 04:45:54;;;;;;;0.30;0.30;;;12.70;99.90;;;-141.50;100.00;62695.63;5009005;28;20626;-71
2022/04/13 04:48:21;;;;;;;0.30;0.20;;;12.70;99.90;;;-141.50;100.00;62695.63;5013826;28;20716;-71
2022/04/13 04:50:48;;;;;;;0.30;0.30;;;12.70;99.90;;;-141.50;100.00;62695.63;5012084;28;20640;-71
2022/04/13 04:53:15;;;;;;;0.30;0.30;;;12.70;99.90;;;-141.50;100.00;62695.63;5002977;28;20632;-72
2022/04/13 04:55:42;;;;;;;1.13;1.10;;;12.80;99.90;;;-141.50;100.00;62695.63;5010263;28;21025;-72
2022/04/13 04:58:10;;;;;;;0.30;0.30;;;12.70;99.90;;;-141.50;100.00;62695.63;5022923;28;20664;-71
2022/04/13 05:00:39;;;;;;;0.30;0.20;;;12.70;99.90;;;-141.50;100.00;62695.63;5012154;28;20632;-71
2022/04/13 05:03:06;;;;;;;0.30;0.30;;;12.80;99.90;;;-141.50;100.00;62695.63;4995509;28;20609;-71
2022/04/13 05:05:33;;;;;;;0.30;0.30;;;12.80;99.90;;;-141.50;100.00;62695.63;5014974;28;20656;-72
2022/04/13 05:07:59;;;;;;;0.30;0.30;;;12.90;99.90;;;-141.50;100.00;62695.63;5003050;28;20625;-73
2022/04/13 05:10:26;;;;;;;0.30;0.30;;;12.90;99.90;;;-141.50;100.00;62695.63;4995281;28;20676;-72
2022/04/13 05:12:56;;;;;;;0.30;0.20;;;13.00;99.90;;;-141.50;100.00;62695.63;5030285;28;20891;-73
2022/04/13 05:15:25;;;;;;;0.30;0.30;;;13.00;99.90;;;-141.50;100.00;62695.63;5032734;28;20643;-71
2022/04/13 05:17:52;;;;;;;0.30;0.30;;;13.10;99.90;;;-141.50;100.00;62695.63;5013229;28;21387;-72
2022/04/13 05:20:19;;;;;;;0.30;0.20;;;13.20;99.90;;;-141.50;100.00;62695.63;5014928;28;20620;-73
2022/04/13 05:22:46;;;;;;;0.30;0.30;;;13.20;99.90;;;-141.50;100.00;62695.63;5026054;28;20642;-72
2022/04/13 05:25:15;;;;;;;0.30;0.30;;;13.30;99.90;;;-141.50;100.00;62695.63;5010730;28;21422;-71
2022/04/13 05:27:44;;;;;;;0.30;0.20;;;13.30;99.90;;;-141.50;100.00;62695.63;5004134;28;20652;-67
2022/04/13 05:30:14;;;;;;;0.30;0.30;;;13.40;99.90;;;-141.50;100.00;62695.63;5005511;28;20783;-71
2022/04/13 05:32:57;;;;;;;0.50;0.50;;;13.50;99.90;;;-141.50;100.00;62695.63;5011966;28;20628;-72
2022/04/13 05:35:26;;;;;;;0.30;0.20;;;13.60;99.90;;;-141.50;100.00;62695.63;4996665;28;20664;-71
2022/04/13 05:37:54;;;;;;;0.30;0.30;;;13.60;99.90;;;-141.50;100.00;62695.63;4996889;28;20739;-73
2022/04/13 05:40:23;;;;;;;0.30;0.30;;;13.70;99.90;;;-141.50;100.00;62695.63;4996197;28;20625;-70
2022/04/13 05:42:54;;;;;;;0.40;0.40;;;13.70;99.90;;;-141.50;100.00;62695.63;4993893;28;20788;-73
2022/04/13 05:45:21;;;;;;;3.80;1.37;;;13.80;99.90;;;-141.50;100.00;62695.63;5079059;23;21255;-72
2022/04/13 05:47:48;;;;;;;0.60;0.60;;;14.00;99.90;;;-141.50;100.00;62695.63;5011619;28;20645;-72
2022/04/13 05:50:15;;;;;;;0.30;0.20;;;14.10;99.90;;;-141.50;100.00;62695.63;5006070;28;20611;-72
2022/04/13 05:52:43;;;;;;;0.30;0.20;;;14.30;99.90;;;-141.50;100.00;62695.63;5011615;28;21160;-73
2022/04/13 05:55:11;;;;;;;0.30;0.20;;;14.40;99.90;;;-141.50;100.00;62695.63;5013230;28;20974;-72
2022/04/13 05:57:38;;;;;;;0.30;0.30;;;14.60;99.90;;;-141.50;100.00;62695.63;4992836;28;20700;-72
2022/04/13 06:00:08;;;;;;;0.30;0.30;;;14.90;99.90;;;-141.50;100.00;62695.63;4986220;28;20613;-70
2022/04/13 06:02:36;;;;;;;0.30;0.30;;;15.20;99.90;;;-141.50;100.00;62695.63;5010909;28;21202;-72
2022/04/13 06:05:05;;;;;;;0.37;0.37;;;15.60;99.90;;;-141.50;100.00;62695.63;4995194;28;20640;-72
2022/04/13 06:07:33;;;;;;;0.50;0.50;;;15.90;99.90;;;-141.50;100.00;62695.63;4994179;28;20634;-72
2022/04/13 06:10:01;;;;;;;0.30;0.30;;;16.20;99.90;;;-141.50;100.00;62695.63;5009269;28;20619;-72
2022/04/13 06:12:29;;;;;;;0.30;0.30;;;16.40;99.90;;;-141.50;100.00;62695.63;5006851;28;20626;-72
2022/04/13 06:15:12;;;;;;;0.30;0.30;;;16.70;99.90;;;-141.50;100.00;62695.63;5050886;23;20636;-72
2022/04/13 06:17:40;;;;;;;0.30;0.30;;;16.90;99.90;;;-141.50;100.00;62695.63;5014172;28;20653;-70
2022/04/13 06:20:08;;;;;;;0.30;0.30;;;17.10;99.90;;;-141.50;100.00;62695.63;5008517;28;21264;-69
2022/04/13 06:22:41;;;;;;;0.30;0.30;;;17.20;99.90;;;-141.50;100.00;62695.63;5012873;28;20715;-72
2022/04/13 06:25:10;;;;;;;0.30;0.30;;;17.30;99.90;;;-141.50;100.00;62695.63;5009358;28;20645;-70
2022/04/13 06:27:37;;;;;;;0.30;0.30;;;17.50;99.90;;;-141.50;100.00;62695.63;4994779;28;21191;-70
2022/04/13 06:30:05;;;;;;;0.30;0.30;;;18.00;99.90;;;-141.50;100.00;62695.63;5010858;28;20643;-70
2022/04/13 06:32:44;;;;;;;0.30;0.30;;;18.50;99.90;;;-141.50;100.00;62695.63;4993778;28;20659;-72
2022/04/13 06:35:15;;;;;;;0.30;0.30;;;19.00;99.90;;;-141.50;100.00;62695.63;5010615;28;20696;-72
2022/04/13 06:37:47;;;;;;;0.30;0.30;;;19.60;97.80;;;-141.50;100.00;62695.63;5011034;28;20676;-72
2022/04/13 06:40:14;;;;;;;0.30;0.30;;;20.00;96.30;;;-141.50;100.00;62695.63;4989881;28;21217;-70
2022/04/13 06:42:42;;;;;;;0.40;0.40;;;20.60;94.40;;;-141.50;100.00;62695.63;4991359;28;20610;-71
2022/04/13 06:45:13;;;;;;;0.30;0.30;;;20.60;93.60;;;-141.50;100.00;62695.63;4993293;28;20644;-70
2022/04/13 06:47:41;;;;;;;0.40;0.40;;;21.10;92.60;;;-141.50;100.00;62695.63;5007332;28;20637;-70
2022/04/13 06:50:10;;;;;;;0.30;0.30;;;21.40;91.20;;;-141.50;100.00;62695.63;4989344;28;20678;-74
2022/04/13 06:52:38;;;;;;;0.30;0.30;;;21.50;89.80;;;-141.50;100.00;62695.63;5010748;28;20986;-66
2022/04/13 06:55:09;;;;;;;0.30;0.30;;;21.20;90.00;;;-141.50;100.00;62695.63;4992249;28;20752;-69
2022/04/13 06:57:38;;;;;;;0.40;0.40;;;20.80;90.60;;;-141.50;100.00;62695.63;4974211;28;20697;-71
2022/04/13 07:00:07;;;;;;;0.50;0.50;;;20.80;90.40;;;-141.50;100.00;62695.63;4991719;28;20641;-70
2022/04/13 07:02:39;;;;;;;3.33;1.70;;;20.30;90.90;;;-141.50;100.00;62695.63;5009082;28;20617;-70
2022/04/13 07:05:26;;;;;;;0.30;0.30;;;20.00;91.50;;;-141.50;100.00;62695.63;4995008;28;21177;-67
2022/04/13 07:07:55;;;;;;;0.30;0.30;;;19.90;92.20;;;-141.50;100.00;62695.63;4993970;28;20610;-70
2022/04/13 07:10:22;;;;;;;0.30;0.30;;;19.80;92.50;;;-141.50;100.00;62695.63;4972461;28;20637;-69
2022/04/13 07:12:49;;;;;;;0.30;0.30;;;19.70;92.90;;;-141.50;100.00;62695.63;4992256;28;21198;-71
2022/04/13 07:15:17;;;;;;;0.30;0.30;;;19.40;93.40;;;-141.50;100.00;62695.63;5010187;28;20665;-72
2022/04/13 07:17:45;;;;;;;0.40;0.40;;;19.10;94.40;;;-141.50;100.00;62695.63;5010800;28;20673;-73
2022/04/13 07:20:13;;;;;;;0.30;0.30;;;18.70;95.50;;;-141.50;100.00;62695.63;4989906;28;21000;-69
2022/04/13 07:22:49;;;;;;;0.40;0.40;;;18.50;96.40;;;-141.50;100.00;62695.63;4992662;28;21269;-73
2022/04/13 07:25:18;;;;;;;0.30;0.30;;;18.30;96.80;;;-141.50;100.00;62695.63;4991347;28;20653;-71
2022/04/13 07:27:46;;;;;;;0.40;0.40;;;18.30;97.20;;;-141.50;100.00;62695.63;5011201;28;20630;-71
2022/04/13 07:30:14;;;;;;;0.30;0.30;;;18.30;98.00;;;-141.50;100.00;62695.63;4992180;28;20988;-70
2022/04/13 07:32:46;;;;;;;0.30;0.30;;;18.50;98.20;;;-141.50;100.00;62695.63;4988774;28;20643;-68
2022/04/13 07:35:14;;;;;;;0.30;0.30;;;18.80;97.50;;;-141.50;100.00;62695.63;4991712;28;21023;-71
2022/04/13 07:37:43;;;;;;;0.30;0.30;;;19.00;97.00;;;-141.50;100.00;62695.63;4991866;28;20665;-70
2022/04/13 07:40:13;;;;;;;0.30;0.30;;;19.30;96.60;;;-141.50;100.00;62695.63;5009460;28;20628;-71
2022/04/13 07:42:41;;;;;;;0.50;0.50;;;19.70;95.90;;;-141.50;100.00;62695.63;5007673;28;20637;-71
2022/04/13 07:45:08;;;;;;;0.30;0.30;;;20.00;95.10;;;-141.50;100.00;62695.63;4992801;28;20637;-70
2022/04/13 07:47:36;;;;;;;0.40;0.40;;;20.60;94.00;;;-141.50;100.00;62695.63;4990937;28;20633;-70
2022/04/13 07:50:05;;;;;;;0.30;0.30;;;21.10;92.60;;;-141.50;100.00;62695.63;5010505;28;20772;-70
2022/04/13 07:52:34;;;;;;;0.30;0.30;;;21.60;91.10;;;-141.50;100.00;62695.63;4988598;28;21015;-70
2022/04/13 07:55:02;;;;;;;0.30;0.30;;;22.00;89.80;;;-141.50;100.00;62695.63;4992098;28;20760;-71
2022/04/13 07:57:29;;;;;;;0.30;0.30;;;22.10;87.80;;;-141.50;100.00;62695.63;5007717;28;20649;-69
2022/04/13 07:59:56;;;;;;;0.30;0.30;;;22.20;85.60;;;-141.50;100.00;62695.63;4990112;28;20633;-72
2022/04/13 08:02:23;;;;;;;0.30;0.30;;;22.20;84.40;;;-141.50;100.00;62695.63;4991994;28;21187;-70
2022/04/13 08:04:50;;;;;;;0.30;0.30;;;22.30;83.00;;;-141.50;100.00;62695.63;5008279;28;21262;-71
2022/04/13 08:07:17;;;;;;;0.30;0.30;;;22.30;83.00;;;-141.50;100.00;62695.63;5010403;28;20617;-72
2022/04/13 08:09:44;;;;;;;0.30;0.30;;;22.10;83.50;;;-141.50;100.00;62695.63;4990394;28;20652;-71
2022/04/13 08:12:11;;;;;;;0.30;0.30;;;21.90;84.30;;;-141.50;100.00;62695.63;5009551;28;20653;-71
2022/04/13 08:14:38;;;;;;;0.30;0.30;;;21.80;84.30;;;-141.50;100.00;62695.63;5007453;28;20643;-71
2022/04/13 08:17:06;;;;;;;0.30;0.30;;;21.70;84.00;;;-141.50;100.00;62695.63;4975205;28;20617;-73
2022/04/13 08:19:33;;;;;;;0.30;0.30;;;21.60;84.00;;;-141.50;100.00;62695.63;5007067;28;20640;-71
2022/04/13 08:22:00;;;;;;;2.40;1.03;;;21.60;84.30;;;-141.50;100.00;62695.63;5001186;28;20614;-73
2022/04/13 08:24:27;;;;;;;0.30;0.30;;;21.90;83.30;;;-141.50;100.00;62695.63;5006716;28;20732;-74
2022/04/13 08:26:54;;;;;;;0.30;0.30;;;22.20;81.80;;;-141.50;100.00;62695.63;4997406;28;20633;-71
2022/04/13 08:29:21;;;;;;;0.30;0.30;;;22.40;80.30;;;-141.50;100.00;62695.63;4991946;28;20736;-71
2022/04/13 08:31:48;;;;;;;0.30;0.30;;;22.60;78.80;;;-141.50;100.00;62695.63;5008416;28;20629;-71
2022/04/13 08:34:15;;;;;;;0.40;0.40;;;22.70;78.40;;;-141.50;100.00;62695.63;5007586;28;20697;-70
2022/04/13 08:36:42;;;;;;;0.30;0.30;;;22.50;78.00;;;-141.50;100.00;62695.63;5010514;28;20653;-70
2022/04/13 08:39:13;;;;;;;0.40;0.40;;;22.50;78.60;;;-141.50;100.00;62695.63;5010405;28;20658;-71
2022/04/13 08:41:57;;;;;;;0.30;0.30;;;22.50;78.90;;;-141.50;100.00;62695.63;4995103;28;20641;-71
2022/04/13 08:44:52;;;;;;;2.00;1.37;;;22.70;78.40;;;-141.50;100.00;62695.63;4995074;28;20612;-71
2022/04/13 08:47:24;;;;;;;0.30;0.30;;;23.20;76.40;;;-141.50;100.00;62695.63;4992893;28;20644;-70
2022/04/13 08:49:52;;;;;;;0.30;0.30;;;23.40;75.40;;;-141.50;100.00;62695.63;4993912;28;20619;-71
2022/04/13 08:52:31;;;;;;;1.23;0.90;;;23.60;74.20;;;-141.50;100.00;62695.63;4988268;28;20610;-71
2022/04/13 08:55:11;;;;;;;0.30;0.30;;;23.80;73.10;;;-141.50;100.00;62695.63;4993191;28;20893;-72
2022/04/13 08:57:48;;;;;;;0.30;0.30;;;24.60;71.50;;;-141.50;100.00;62695.63;5007416;28;21299;-72
2022/04/13 09:00:18;;;;;;;0.30;0.30;;;25.60;68.40;;;-141.50;100.00;62695.63;4993339;28;20615;-71
2022/04/13 09:03:16;;;;;;;0.30;0.30;;;26.30;65.70;;;-141.50;100.00;62695.63;5010512;28;20668;-71
2022/04/13 09:05:51;;;;;;;0.63;0.50;;;26.40;62.40;;;-141.50;100.00;62695.63;5012121;28;21008;-72
2022/04/13 09:08:23;;;;;;;4.53;1.83;;;27.30;61.10;;;-141.50;100.00;62695.63;4980396;28;20633;-72
2022/04/13 09:10:52;;;;;;;0.30;0.30;;;28.70;58.60;;;-141.50;100.00;62695.63;4994456;28;21282;-70
2022/04/13 09:13:22;;;;;;;0.37;0.30;;;29.40;55.60;;;-141.50;100.00;62695.63;4975916;28;20629;-70
2022/04/13 09:15:49;;;;;;;0.40;0.30;;;30.40;52.90;;;-141.50;100.00;62695.63;5011433;28;20772;-71
2022/04/13 09:18:16;;;;;;;0.40;0.30;;;31.40;50.70;;;-141.50;100.00;62695.63;5000252;28;20672;-71
2022/04/13 09:20:43;;;;;;;0.40;0.30;;;30.70;49.30;;;-141.50;100.00;62695.63;4998805;28;20635;-69
2022/04/13 09:23:12;;;;;;;0.40;0.30;;;31.30;48.80;;;-141.50;100.00;62695.63;5008443;28;20621;-70
2022/04/13 09:25:41;;;;;;;0.37;0.30;;;32.60;48.30;;;-141.50;100.00;62695.63;5011772;28;20660;-72
2022/04/13 09:28:07;;;;;;;0.40;0.30;;;34.00;46.30;;;-141.50;100.00;62695.63;5009802;28;20645;-73
2022/04/13 09:30:35;;;;;;;0.30;0.30;;;34.80;45.10;;;-141.50;100.00;62695.63;5012019;28;20637;-71
2022/04/13 09:33:03;;;;;;;0.40;0.40;;;35.70;43.50;;;-141.50;100.00;62695.63;4992684;28;20669;-74
2022/04/13 09:35:35;;;;;;;0.40;0.40;;;35.60;41.20;;;-141.50;100.00;62695.63;4996096;28;20660;-72
2022/04/13 09:38:07;;;;;;;0.30;0.30;;;36.00;40.50;;;-141.50;100.00;62695.63;5012192;28;20668;-73
2022/04/13 09:40:37;;;;;;;0.40;0.40;;;36.30;39.50;;;-141.50;100.00;62695.63;4994490;28;20668;-68
2022/04/13 09:43:15;;;;;;;1.47;1.37;;;36.10;39.50;;;-141.50;100.00;62695.63;5012721;28;20645;-73
2022/04/13 09:45:49;;;;;;;0.40;0.40;;;36.40;39.10;;;-141.50;100.00;62695.63;4992727;23;21279;-74
2022/04/13 09:48:22;;;;;;;0.40;0.40;;;36.80;38.90;;;-141.50;100.00;62695.63;4994196;28;20665;-70
2022/04/13 09:50:51;;;;;;;0.70;0.70;;;37.60;38.60;;;-141.50;100.00;62695.63;4997776;28;20970;-72
2022/04/13 09:53:20;;;;;;;0.40;0.40;;;38.10;37.50;;;-141.50;100.00;62695.63;4980893;28;20639;-72
2022/04/13 09:56:01;;;;;;;0.40;0.40;;;38.80;36.80;;;-141.50;100.00;62695.63;5006767;28;20650;-71
2022/04/13 09:58:33;;;;;;;0.40;0.40;;;39.10;36.70;;;-141.50;100.00;62695.63;4990896;28;20641;-73
2022/04/13 10:01:02;;;;;;;0.50;0.50;;;39.40;35.80;;;-141.50;100.00;62695.63;4974257;28;21230;-70
2022/04/13 10:03:29;;;;;;;0.67;0.67;;;39.70;35.30;;;-141.50;100.00;62695.63;4988735;28;20642;-71
2022/04/13 10:05:58;;;;;;;0.40;0.40;;;39.40;35.20;;;-141.50;100.00;62695.63;4993251;28;20654;-69